sensor_id;sensor_type;location;lat;lon;timestamp;pressure;altitude;pressure_sealevel;temperature;humidity
37298;BME280;30517;51.932;4.278;2022-11-15T00:00:59;100773.69;;;8.45;68.83
37298;BME280;30517;51.932;4.278;2022-11-15T00:03:39;100721.88;;;8.24;68.73
37298;BME280;30517;51.932;4.278;2022-11-15T00:06:20;100762.28;;;8.40;68.43
37298;BME280;30517;51.932;4.278;2022-11-15T00:09:02;100754.34;;;8.35;68.68
37298;BME280;30517;51.932;4.278;2022-11-15T00:11:43;100722.72;;;8.23;68.55
37298;BME280;30517;51.932;4.278;2022-11-15T00:14:23;100744.75;;;8.40;68.25
37298;BME280;30517;51.932;4.278;2022-11-15T00:17:04;100766.75;;;8.56;68.58
37298;BME280;30517;51.932;4.278;2022-11-15T00:19:45;100751.78;;;8.43;68.56
37298;BME280;30517;51.932;4.278;2022-11-15T00:22:31;100771.06;;;8.50;68.57
37298;BME280;30517;51.932;4.278;2022-11-15T00:25:13;100756.16;;;8.47;68.07
37298;BME280;30517;51.932;4.278;2022-11-15T00:27:57;100760.56;;;8.50;68.13
37298;BME280;30517;51.932;4.278;2022-11-15T00:30:38;100771.09;;;8.56;68.35
37298;BME280;30517;51.932;4.278;2022-11-15T00:33:19;100756.22;;;8.53;68.59
37298;BME280;30517;51.932;4.278;2022-11-15T00:36:04;100736.03;;;8.49;68.46
37298;BME280;30517;51.932;4.278;2022-11-15T00:38:45;100767.63;;;8.57;68.41
37298;BME280;30517;51.932;4.278;2022-11-15T00:41:26;100692.91;;;8.18;68.61
37298;BME280;30517;51.932;4.278;2022-11-15T00:44:06;100669.22;;;8.06;68.47
37298;BME280;30517;51.932;4.278;2022-11-15T00:46:47;100745.72;;;8.53;67.82
37298;BME280;30517;51.932;4.278;2022-11-15T00:49:28;100750.13;;;8.65;67.66
37298;BME280;30517;51.932;4.278;2022-11-15T00:52:09;100729.88;;;8.44;68.45
37298;BME280;30517;51.932;4.278;2022-11-15T00:54:50;100747.47;;;8.59;68.79
37298;BME280;30517;51.932;4.278;2022-11-15T00:57:30;100722.03;;;8.49;68.11
37298;BME280;30517;51.932;4.278;2022-11-15T01:00:12;100750.97;;;8.59;68.47
37298;BME280;30517;51.932;4.278;2022-11-15T01:02:53;100699.97;;;8.31;68.26
37298;BME280;30517;51.932;4.278;2022-11-15T01:05:33;100741.34;;;8.57;68.35
37298;BME280;30517;51.932;4.278;2022-11-15T01:08:15;100744.00;;;8.61;68.61
37298;BME280;30517;51.932;4.278;2022-11-15T01:11:11;100711.47;;;8.44;68.80
37298;BME280;30517;51.932;4.278;2022-11-15T01:13:52;100690.38;;;8.36;68.09
37298;BME280;30517;51.932;4.278;2022-11-15T01:16:33;100737.84;;;8.62;68.76
37298;BME280;30517;51.932;4.278;2022-11-15T01:19:13;100714.97;;;8.48;68.70
37298;BME280;30517;51.932;4.278;2022-11-15T01:21:54;100732.56;;;8.64;68.50
37298;BME280;30517;51.932;4.278;2022-11-15T01:24:35;100698.34;;;8.47;68.36
37298;BME280;30517;51.932;4.278;2022-11-15T01:27:16;100683.38;;;8.37;68.13
37298;BME280;30517;51.932;4.278;2022-11-15T01:29:57;100724.69;;;8.64;68.77
37298;BME280;30517;51.932;4.278;2022-11-15T01:32:38;100688.69;;;8.48;68.37
37298;BME280;30517;51.932;4.278;2022-11-15T01:35:18;100709.78;;;8.60;68.41
37298;BME280;30517;51.932;4.278;2022-11-15T01:38:00;100704.50;;;8.54;68.59
37298;BME280;30517;51.932;4.278;2022-11-15T01:40:40;100703.66;;;8.66;68.63
37298;BME280;30517;51.932;4.278;2022-11-15T01:46:29;100602.66;;;8.01;68.92
37298;BME280;30517;51.932;4.278;2022-11-15T01:49:18;100690.53;;;8.70;68.85
37298;BME280;30517;51.932;4.278;2022-11-15T01:52:02;100697.53;;;8.65;68.63
37298;BME280;30517;51.932;4.278;2022-11-15T01:54:44;100697.53;;;8.65;68.78
37298;BME280;30517;51.932;4.278;2022-11-15T01:57:25;100682.63;;;8.59;68.33
37298;BME280;30517;51.932;4.278;2022-11-15T02:00:06;100681.75;;;8.62;68.71
37298;BME280;30517;51.932;4.278;2022-11-15T02:02:47;100679.97;;;8.61;68.37
37298;BME280;30517;51.932;4.278;2022-11-15T02:05:30;100689.63;;;8.67;68.49
37298;BME280;30517;51.932;4.278;2022-11-15T02:08:11;100674.75;;;8.62;68.91
37298;BME280;30517;51.932;4.278;2022-11-15T02:10:59;100634.34;;;8.37;68.44
37298;BME280;30517;51.932;4.278;2022-11-15T02:13:41;100665.97;;;8.65;68.62
37298;BME280;30517;51.932;4.278;2022-11-15T02:16:27;100679.13;;;8.71;68.75
37298;BME280;30517;51.932;4.278;2022-11-15T02:22:28;100673.03;;;8.75;68.49
37298;BME280;30517;51.932;4.278;2022-11-15T02:34:00;100663.38;;;8.77;68.43
37298;BME280;30517;51.932;4.278;2022-11-15T02:37:09;100667.78;;;8.81;68.26
37298;BME280;30517;51.932;4.278;2022-11-15T02:40:27;100661.66;;;8.84;68.55
37298;BME280;30517;51.932;4.278;2022-11-15T02:43:16;100650.25;;;8.83;68.21
37298;BME280;30517;51.932;4.278;2022-11-15T02:46:22;100644.09;;;8.74;68.80
37298;BME280;30517;51.932;4.278;2022-11-15T02:49:31;100611.66;;;8.67;68.09
37298;BME280;30517;51.932;4.278;2022-11-15T02:52:17;100646.75;;;8.89;68.13
37298;BME280;30517;51.932;4.278;2022-11-15T02:54:59;100645.88;;;8.84;69.23
37298;BME280;30517;51.932;4.278;2022-11-15T03:00:21;100583.56;;;8.49;68.80
37298;BME280;30517;51.932;4.278;2022-11-15T03:09:05;100625.69;;;8.75;69.47
37298;BME280;30517;51.932;4.278;2022-11-15T03:11:50;100629.22;;;8.86;69.14
37298;BME280;30517;51.932;4.278;2022-11-15T03:14:40;100605.50;;;8.74;68.95
37298;BME280;30517;51.932;4.278;2022-11-15T03:17:30;100631.84;;;8.96;69.22
37298;BME280;30517;51.932;4.278;2022-11-15T03:20:15;100627.47;;;8.92;68.68
37298;BME280;30517;51.932;4.278;2022-11-15T03:23:00;100626.56;;;8.99;69.40
37298;BME280;30517;51.932;4.278;2022-11-15T03:25:46;100618.69;;;8.93;68.60
37298;BME280;30517;51.932;4.278;2022-11-15T03:28:50;100627.47;;;8.98;69.50
37298;BME280;30517;51.932;4.278;2022-11-15T03:31:36;100605.53;;;8.85;69.11
37298;BME280;30517;51.932;4.278;2022-11-15T03:37:46;100641.50;;;9.00;69.37
37298;BME280;30517;51.932;4.278;2022-11-15T03:40:36;100619.56;;;8.95;69.90
37298;BME280;30517;51.932;4.278;2022-11-15T03:43:28;100630.13;;;8.99;69.42
37298;BME280;30517;51.932;4.278;2022-11-15T03:46:13;100610.81;;;8.86;69.34
37298;BME280;30517;51.932;4.278;2022-11-15T03:49:12;100590.63;;;8.79;68.89
37298;BME280;30517;51.932;4.278;2022-11-15T03:51:57;100616.06;;;8.90;69.40
37298;BME280;30517;51.932;4.278;2022-11-15T03:54:47;100642.38;;;9.05;69.50
37298;BME280;30517;51.932;4.278;2022-11-15T03:57:28;100633.63;;;9.00;69.34
37298;BME280;30517;51.932;4.278;2022-11-15T04:00:09;100644.16;;;9.07;69.57
37298;BME280;30517;51.932;4.278;2022-11-15T04:02:51;100623.97;;;9.02;69.30
37298;BME280;30517;51.932;4.278;2022-11-15T04:05:31;100629.22;;;9.05;69.28
37298;BME280;30517;51.932;4.278;2022-11-15T04:08:12;100631.84;;;9.11;69.58
37298;BME280;30517;51.932;4.278;2022-11-15T04:10:53;100568.72;;;8.79;69.31
37298;BME280;30517;51.932;4.278;2022-11-15T04:13:34;100627.47;;;9.13;69.17
37298;BME280;30517;51.932;4.278;2022-11-15T04:16:14;100595.91;;;9.01;69.33
37298;BME280;30517;51.932;4.278;2022-11-15T04:18:55;100602.91;;;9.03;69.70
37298;BME280;30517;51.932;4.278;2022-11-15T04:21:55;100608.19;;;9.14;69.16
37298;BME280;30517;51.932;4.278;2022-11-15T04:24:55;100598.50;;;9.07;69.16
37298;BME280;30517;51.932;4.278;2022-11-15T04:27:35;100616.06;;;9.19;69.46
37298;BME280;30517;51.932;4.278;2022-11-15T04:30:16;100616.97;;;9.21;69.04
37298;BME280;30517;51.932;4.278;2022-11-15T04:32:57;100605.56;;;9.19;69.10
37298;BME280;30517;51.932;4.278;2022-11-15T04:35:38;100616.06;;;9.22;69.72
37298;BME280;30517;51.932;4.278;2022-11-15T04:38:19;100622.19;;;9.25;69.18
37298;BME280;30517;51.932;4.278;2022-11-15T04:41:00;100629.22;;;9.25;69.86
37298;BME280;30517;51.932;4.278;2022-11-15T04:43:41;100588.00;;;9.01;70.12
37298;BME280;30517;51.932;4.278;2022-11-15T04:46:22;100634.47;;;9.23;70.26
37298;BME280;30517;51.932;4.278;2022-11-15T04:49:03;100623.94;;;9.23;70.14
37298;BME280;30517;51.932;4.278;2022-11-15T04:51:44;100616.06;;;9.22;69.73
37298;BME280;30517;51.932;4.278;2022-11-15T04:54:25;100529.25;;;8.67;69.29
37298;BME280;30517;51.932;4.278;2022-11-15T04:57:06;100634.47;;;9.36;69.29
37298;BME280;30517;51.932;4.278;2022-11-15T04:59:46;100638.88;;;9.34;69.33
37298;BME280;30517;51.932;4.278;2022-11-15T05:02:27;100617.81;;;9.34;68.79
37298;BME280;30517;51.932;4.278;2022-11-15T05:05:28;100645.00;;;9.42;69.45
37298;BME280;30517;51.932;4.278;2022-11-15T05:08:09;100642.38;;;9.40;69.60
37298;BME280;30517;51.932;4.278;2022-11-15T05:10:50;100634.47;;;9.34;69.94
37298;BME280;30517;51.932;4.278;2022-11-15T05:13:31;100642.38;;;9.40;69.67
37298;BME280;30517;51.932;4.278;2022-11-15T05:16:12;100649.38;;;9.44;69.56
37298;BME280;30517;51.932;4.278;2022-11-15T05:18:53;100631.84;;;9.40;69.68
37298;BME280;30517;51.932;4.278;2022-11-15T05:21:34;100650.28;;;9.48;69.43
37298;BME280;30517;51.932;4.278;2022-11-15T05:24:15;100614.31;;;9.33;69.69
37298;BME280;30517;51.932;4.278;2022-11-15T05:26:56;100641.50;;;9.49;69.18
37298;BME280;30517;51.932;4.278;2022-11-15T05:29:37;100573.09;;;9.09;69.41
37298;BME280;30517;51.932;4.278;2022-11-15T05:32:18;100627.44;;;9.42;69.25
37298;BME280;30517;51.932;4.278;2022-11-15T05:34:59;100621.31;;;9.51;69.31
37298;BME280;30517;51.932;4.278;2022-11-15T05:37:40;100638.84;;;9.57;69.54
37298;BME280;30517;51.932;4.278;2022-11-15T05:40:21;100631.84;;;9.54;69.21
37298;BME280;30517;51.932;4.278;2022-11-15T05:43:03;100573.00;;;9.70;72.21
37298;BME280;30517;51.932;4.278;2022-11-15T05:45:45;100613.34;;;9.77;73.73
37298;BME280;30517;51.932;4.278;2022-11-15T05:48:26;100604.66;;;9.35;74.05
37298;BME280;30517;51.932;4.278;2022-11-15T05:51:07;100610.81;;;9.37;73.02
37298;BME280;30517;51.932;4.278;2022-11-15T05:53:49;100644.09;;;9.61;72.48
37298;BME280;30517;51.932;4.278;2022-11-15T05:56:30;100628.34;;;9.49;72.10
37298;BME280;30517;51.932;4.278;2022-11-15T05:59:11;100643.25;;;9.56;71.77
37298;BME280;30517;51.932;4.278;2022-11-15T06:01:52;100647.63;;;9.60;71.75
37298;BME280;30517;51.932;4.278;2022-11-15T06:04:33;100641.47;;;9.55;71.28
37298;BME280;30517;51.932;4.278;2022-11-15T06:07:14;100662.53;;;9.67;70.89
37298;BME280;30517;51.932;4.278;2022-11-15T06:09:54;100637.09;;;9.57;71.37
37298;BME280;30517;51.932;4.278;2022-11-15T06:12:35;100648.47;;;9.74;71.02
37298;BME280;30517;51.932;4.278;2022-11-15T06:15:16;100630.94;;;9.61;70.67
37298;BME280;30517;51.932;4.278;2022-11-15T06:17:57;100653.72;;;9.74;70.37
37298;BME280;30517;51.932;4.278;2022-11-15T06:20:37;100650.25;;;9.69;70.71
37298;BME280;30517;51.932;4.278;2022-11-15T06:23:18;100648.47;;;9.76;70.46
37298;BME280;30517;51.932;4.278;2022-11-15T06:26:00;100653.75;;;9.78;70.40
37298;BME280;30517;51.932;4.278;2022-11-15T06:28:41;100612.53;;;9.50;70.28
37298;BME280;30517;51.932;4.278;2022-11-15T06:31:21;100625.69;;;9.67;69.77
37298;BME280;30517;51.932;4.278;2022-11-15T06:34:02;100629.19;;;9.69;69.85
37298;BME280;30517;51.932;4.278;2022-11-15T06:36:43;100656.38;;;9.84;69.84
37298;BME280;30517;51.932;4.278;2022-11-15T06:39:24;100658.13;;;9.82;69.84
37298;BME280;30517;51.932;4.278;2022-11-15T06:42:08;100636.22;;;9.67;69.54
37298;BME280;30517;51.932;4.278;2022-11-15T06:44:49;100643.19;;;9.84;69.38
37298;BME280;30517;51.932;4.278;2022-11-15T06:47:30;100660.72;;;9.91;69.30
37298;BME280;30517;51.932;4.278;2022-11-15T06:50:10;100652.84;;;9.85;69.68
37298;BME280;30517;51.932;4.278;2022-11-15T06:52:51;100627.44;;;9.65;69.78
37298;BME280;30517;51.932;4.278;2022-11-15T06:55:32;100667.78;;;9.89;69.81
37298;BME280;30517;51.932;4.278;2022-11-15T06:58:13;100653.75;;;9.78;69.40
37298;BME280;30517;51.932;4.278;2022-11-15T07:00:59;100659.00;;;9.82;69.54
37298;BME280;30517;51.932;4.278;2022-11-15T07:03:41;100661.59;;;9.93;69.11
37298;BME280;30517;51.932;4.278;2022-11-15T07:06:22;100663.38;;;9.89;69.16
37298;BME280;30517;51.932;4.278;2022-11-15T07:09:03;100655.47;;;9.94;69.30
37298;BME280;30517;51.932;4.278;2022-11-15T07:11:44;100666.88;;;9.90;69.51
37298;BME280;30517;51.932;4.278;2022-11-15T07:14:25;100641.47;;;9.67;69.84
37298;BME280;30517;51.932;4.278;2022-11-15T07:17:06;100616.91;;;9.62;69.55
37298;BME280;30517;51.932;4.278;2022-11-15T07:19:46;100656.34;;;9.90;69.52
37298;BME280;30517;51.932;4.278;2022-11-15T07:22:27;100652.81;;;9.91;69.16
37298;BME280;30517;51.932;4.278;2022-11-15T07:25:08;100666.03;;;9.79;69.59
37298;BME280;30517;51.932;4.278;2022-11-15T07:27:59;100661.63;;;9.87;69.31
37298;BME280;30517;51.932;4.278;2022-11-15T07:30:40;100664.25;;;9.87;69.28
37298;BME280;30517;51.932;4.278;2022-11-15T07:33:21;100664.25;;;9.99;69.10
37298;BME280;30517;51.932;4.278;2022-11-15T07:36:04;100672.13;;;9.97;69.27
37298;BME280;30517;51.932;4.278;2022-11-15T07:38:45;100663.38;;;9.80;69.25
37298;BME280;30517;51.932;4.278;2022-11-15T07:41:26;100658.97;;;9.93;69.33
37298;BME280;30517;51.932;4.278;2022-11-15T07:44:07;100658.09;;;9.91;69.03
37298;BME280;30517;51.932;4.278;2022-11-15T07:46:48;100601.09;;;9.61;69.67
37298;BME280;30517;51.932;4.278;2022-11-15T07:49:28;100638.78;;;9.87;69.35
37298;BME280;30517;51.932;4.278;2022-11-15T07:52:09;100635.28;;;9.82;69.34
37298;BME280;30517;51.932;4.278;2022-11-15T07:54:50;100624.78;;;9.76;69.69
37298;BME280;30517;51.932;4.278;2022-11-15T07:57:31;100623.00;;;9.84;68.86
37298;BME280;30517;51.932;4.278;2022-11-15T08:00:12;100613.38;;;9.75;69.52
37298;BME280;30517;51.932;4.278;2022-11-15T08:03:01;100630.03;;;9.84;69.29
37298;BME280;30517;51.932;4.278;2022-11-15T08:05:42;100620.34;;;9.80;69.25
37298;BME280;30517;51.932;4.278;2022-11-15T08:08:23;100628.28;;;9.86;69.36
37298;BME280;30517;51.932;4.278;2022-11-15T08:11:04;100601.94;;;9.69;69.95
37298;BME280;30517;51.932;4.278;2022-11-15T08:13:45;100616.84;;;9.82;69.44
37298;BME280;30517;51.932;4.278;2022-11-15T08:16:26;100605.47;;;9.68;69.74
37298;BME280;30517;51.932;4.278;2022-11-15T08:19:06;100608.97;;;9.78;69.49
37298;BME280;30517;51.932;4.278;2022-11-15T08:21:47;100605.44;;;9.83;69.32
37298;BME280;30517;51.932;4.278;2022-11-15T08:24:28;100608.06;;;9.77;69.74
37298;BME280;30517;51.932;4.278;2022-11-15T08:27:09;100580.88;;;9.73;69.39
37298;BME280;30517;51.932;4.278;2022-11-15T08:29:54;100572.13;;;9.67;69.25
37298;BME280;30517;51.932;4.278;2022-11-15T08:32:36;100594.03;;;9.78;69.47
37298;BME280;30517;51.932;4.278;2022-11-15T08:35:18;100600.16;;;9.80;69.46
37298;BME280;30517;51.932;4.278;2022-11-15T08:37:59;100604.56;;;9.80;69.50
37298;BME280;30517;51.932;4.278;2022-11-15T08:40:40;100592.31;;;9.69;69.49
37298;BME280;30517;51.932;4.278;2022-11-15T08:43:21;100601.06;;;9.81;69.72
37298;BME280;30517;51.932;4.278;2022-11-15T08:46:01;100592.25;;;9.85;69.50
37298;BME280;30517;51.932;4.278;2022-11-15T08:48:42;100587.88;;;9.74;69.40
37298;BME280;30517;51.932;4.278;2022-11-15T08:51:23;100611.59;;;9.84;69.19
37298;BME280;30517;51.932;4.278;2022-11-15T08:54:04;100601.06;;;9.73;69.63
37298;BME280;30517;51.932;4.278;2022-11-15T08:56:44;100590.56;;;9.65;69.29
37298;BME280;30517;51.932;4.278;2022-11-15T08:59:25;100598.41;;;9.79;69.21
37298;BME280;30517;51.932;4.278;2022-11-15T09:02:10;100615.94;;;9.89;69.01
37298;BME280;30517;51.932;4.278;2022-11-15T09:04:51;100601.94;;;9.86;69.09
37298;BME280;30517;51.932;4.278;2022-11-15T09:07:32;100606.31;;;9.81;69.10
37298;BME280;30517;51.932;4.278;2022-11-15T09:10:13;100580.00;;;9.73;69.54
37298;BME280;30517;51.932;4.278;2022-11-15T09:12:56;100604.56;;;9.86;69.32
37298;BME280;30517;51.932;4.278;2022-11-15T09:15:37;100606.31;;;9.82;69.61
37298;BME280;30517;51.932;4.278;2022-11-15T09:18:18;100597.53;;;9.79;69.20
37298;BME280;30517;51.932;4.278;2022-11-15T09:21:00;100580.88;;;9.73;69.65
37298;BME280;30517;51.932;4.278;2022-11-15T09:23:42;100587.91;;;9.76;69.41
37298;BME280;30517;51.932;4.278;2022-11-15T09:26:23;100606.31;;;9.82;68.98
37298;BME280;30517;51.932;4.278;2022-11-15T09:29:04;100571.22;;;9.72;69.10
37298;BME280;30517;51.932;4.278;2022-11-15T09:31:45;100559.78;;;9.72;69.33
37298;BME280;30517;51.932;4.278;2022-11-15T09:34:25;100593.13;;;9.88;69.57
37298;BME280;30517;51.932;4.278;2022-11-15T09:37:06;100579.06;;;9.85;69.59
37298;BME280;30517;51.932;4.278;2022-11-15T09:39:47;100555.41;;;9.75;69.44
37298;BME280;30517;51.932;4.278;2022-11-15T09:45:38;100576.44;;;9.88;69.27
37298;BME280;30517;51.932;4.278;2022-11-15T09:48:39;100563.25;;;9.97;69.35
37298;BME280;30517;51.932;4.278;2022-11-15T09:51:33;100536.97;;;9.79;69.13
37298;BME280;30517;51.932;4.278;2022-11-15T09:57:11;100541.31;;;9.87;69.58
37298;BME280;30517;51.932;4.278;2022-11-15T10:00:30;100550.94;;;9.96;69.30
37298;BME280;30517;51.932;4.278;2022-11-15T10:03:16;100550.13;;;9.83;69.26
37298;BME280;30517;51.932;4.278;2022-11-15T10:06:00;100558.88;;;9.91;69.55
37298;BME280;30517;51.932;4.278;2022-11-15T10:08:59;100555.34;;;9.88;69.47
37298;BME280;30517;51.932;4.278;2022-11-15T10:11:41;100559.72;;;9.96;69.70
37298;BME280;30517;51.932;4.278;2022-11-15T10:14:25;100561.47;;;9.93;69.34
37298;BME280;30517;51.932;4.278;2022-11-15T10:17:36;100528.16;;;9.81;69.82
37298;BME280;30517;51.932;4.278;2022-11-15T10:20:24;100540.44;;;9.91;69.47
37298;BME280;30517;51.932;4.278;2022-11-15T10:23:11;100542.16;;;9.92;69.43
37298;BME280;30517;51.932;4.278;2022-11-15T10:25:55;100525.47;;;9.95;69.39
37298;BME280;30517;51.932;4.278;2022-11-15T10:28:36;100490.44;;;9.78;69.91
37298;BME280;30517;51.932;4.278;2022-11-15T10:31:26;100483.41;;;9.73;69.85
37298;BME280;30517;51.932;4.278;2022-11-15T10:34:16;100507.03;;;9.93;69.80
37298;BME280;30517;51.932;4.278;2022-11-15T10:36:59;100505.25;;;9.95;69.53
37298;BME280;30517;51.932;4.278;2022-11-15T10:39:42;100507.94;;;9.94;69.78
37298;BME280;30517;51.932;4.278;2022-11-15T10:42:28;100503.47;;;10.01;69.79
37298;BME280;30517;51.932;4.278;2022-11-15T10:45:30;100498.22;;;10.01;69.42
37298;BME280;30517;51.932;4.278;2022-11-15T10:50:53;100491.22;;;9.96;69.81
37298;BME280;30517;51.932;4.278;2022-11-15T10:53:43;100482.47;;;9.90;69.62
37298;BME280;30517;51.932;4.278;2022-11-15T10:56:26;100475.41;;;9.96;69.58
37298;BME280;30517;51.932;4.278;2022-11-15T10:59:16;100475.38;;;10.01;69.82
37298;BME280;30517;51.932;4.278;2022-11-15T11:01:59;100471.88;;;10.02;69.48
37298;BME280;30517;51.932;4.278;2022-11-15T11:04:50;100438.56;;;9.87;69.84
37298;BME280;30517;51.932;4.278;2022-11-15T11:07:34;100467.47;;;10.01;70.03
37298;BME280;30517;51.932;4.278;2022-11-15T11:10:20;100460.44;;;10.00;69.81
37298;BME280;30517;51.932;4.278;2022-11-15T11:13:20;100442.06;;;9.94;69.89
37298;BME280;30517;51.932;4.278;2022-11-15T11:16:15;100429.72;;;9.99;70.08
37298;BME280;30517;51.932;4.278;2022-11-15T11:22:09;100429.72;;;10.02;70.12
37298;BME280;30517;51.932;4.278;2022-11-15T11:31:32;100439.34;;;10.03;70.25
37298;BME280;30517;51.932;4.278;2022-11-15T11:34:32;100421.81;;;10.02;70.31
37298;BME280;30517;51.932;4.278;2022-11-15T11:40:37;100397.16;;;10.08;70.11
37298;BME280;30517;51.932;4.278;2022-11-15T11:49:07;100377.03;;;9.99;70.54
37298;BME280;30517;51.932;4.278;2022-11-15T11:52:37;100384.00;;;10.06;70.34
37298;BME280;30517;51.932;4.278;2022-11-15T11:58:04;100355.00;;;10.08;70.38
37298;BME280;30517;51.932;4.278;2022-11-15T12:00:54;100366.38;;;10.11;70.32
37298;BME280;30517;51.932;4.278;2022-11-15T12:03:43;100364.63;;;10.13;70.12
37298;BME280;30517;51.932;4.278;2022-11-15T12:06:32;100359.31;;;10.16;70.42
37298;BME280;30517;51.932;4.278;2022-11-15T12:12:08;100330.34;;;10.12;71.65
37298;BME280;30517;51.932;4.278;2022-11-15T12:15:20;100336.38;;;10.31;70.62
37298;BME280;30517;51.932;4.278;2022-11-15T12:18:03;100300.41;;;10.20;70.52
37298;BME280;30517;51.932;4.278;2022-11-15T12:20:54;100304.00;;;10.13;71.25
37298;BME280;30517;51.932;4.278;2022-11-15T12:23:47;100329.41;;;10.24;71.15
37298;BME280;30517;51.932;4.278;2022-11-15T12:26:40;100329.41;;;10.24;71.25
37298;BME280;30517;51.932;4.278;2022-11-15T12:29:35;100309.28;;;10.13;71.17
37298;BME280;30517;51.932;4.278;2022-11-15T12:35:22;100317.91;;;10.31;71.15
37298;BME280;30517;51.932;4.278;2022-11-15T12:38:08;100309.97;;;10.35;70.80
37298;BME280;30517;51.932;4.278;2022-11-15T12:41:12;100294.13;;;10.38;70.70
37298;BME280;30517;51.932;4.278;2022-11-15T12:43:54;100290.63;;;10.36;70.83
37298;BME280;30517;51.932;4.278;2022-11-15T12:52:09;100278.34;;;10.37;70.95
37298;BME280;30517;51.932;4.278;2022-11-15T12:54:56;100270.34;;;10.43;70.54
37298;BME280;30517;51.932;4.278;2022-11-15T12:57:38;100249.38;;;10.31;70.56
37298;BME280;30517;51.932;4.278;2022-11-15T13:03:26;100257.13;;;10.46;70.77
37298;BME280;30517;51.932;4.278;2022-11-15T13:06:09;100247.50;;;10.42;71.02
37298;BME280;30517;51.932;4.278;2022-11-15T13:08:50;100246.59;;;10.45;71.15
37298;BME280;30517;51.932;4.278;2022-11-15T13:11:49;100235.22;;;10.39;71.19
37298;BME280;30517;51.932;4.278;2022-11-15T13:14:49;100228.13;;;10.45;71.18
37298;BME280;30517;51.932;4.278;2022-11-15T13:17:36;100211.59;;;10.30;71.00
37298;BME280;30517;51.932;4.278;2022-11-15T13:20:21;100221.13;;;10.45;71.18
37298;BME280;30517;51.932;4.278;2022-11-15T13:23:11;100220.22;;;10.48;71.17
37298;BME280;30517;51.932;4.278;2022-11-15T13:26:10;100210.50;;;10.51;70.91
37298;BME280;30517;51.932;4.278;2022-11-15T13:28:52;100188.59;;;10.45;71.07
37298;BME280;30517;51.932;4.278;2022-11-15T13:31:37;100199.91;;;10.54;70.89
37298;BME280;30517;51.932;4.278;2022-11-15T13:34:26;100197.25;;;10.54;71.23
37298;BME280;30517;51.932;4.278;2022-11-15T13:37:27;100188.50;;;10.54;71.00
37298;BME280;30517;51.932;4.278;2022-11-15T13:40:28;100184.97;;;10.53;71.00
37298;BME280;30517;51.932;4.278;2022-11-15T13:46:11;100169.97;;;10.57;70.62
37298;BME280;30517;51.932;4.278;2022-11-15T13:51:49;100163.75;;;10.64;70.89
37298;BME280;30517;51.932;4.278;2022-11-15T13:54:41;100140.13;;;10.56;71.17
37298;BME280;30517;51.932;4.278;2022-11-15T13:57:26;100153.19;;;10.64;70.91
37298;BME280;30517;51.932;4.278;2022-11-15T14:00:34;100148.75;;;10.68;71.28
37298;BME280;30517;51.932;4.278;2022-11-15T14:03:25;100122.47;;;10.58;71.14
37298;BME280;30517;51.932;4.278;2022-11-15T14:06:12;100132.88;;;10.69;71.28
37298;BME280;30517;51.932;4.278;2022-11-15T14:09:24;100134.59;;;10.72;71.40
37298;BME280;30517;51.932;4.278;2022-11-15T14:12:30;100117.03;;;10.71;71.23
37298;BME280;30517;51.932;4.278;2022-11-15T14:15:26;100077.78;;;10.49;71.21
37298;BME280;30517;51.932;4.278;2022-11-15T14:18:44;100093.38;;;10.66;71.11
37298;BME280;30517;51.932;4.278;2022-11-15T14:21:25;100101.16;;;10.74;71.22
37298;BME280;30517;51.932;4.278;2022-11-15T14:24:20;100098.47;;;10.77;71.39
37298;BME280;30517;51.932;4.278;2022-11-15T14:29:58;100044.25;;;10.59;70.94
37298;BME280;30517;51.932;4.278;2022-11-15T14:32:47;100083.41;;;10.85;71.11
37298;BME280;30517;51.932;4.278;2022-11-15T14:35:28;100078.13;;;10.87;70.80
37298;BME280;30517;51.932;4.278;2022-11-15T14:38:09;100064.13;;;10.80;70.68
37298;BME280;30517;51.932;4.278;2022-11-15T14:40:49;100058.78;;;10.86;71.05
37298;BME280;30517;51.932;4.278;2022-11-15T14:43:31;100069.22;;;10.92;71.26
37298;BME280;30517;51.932;4.278;2022-11-15T14:46:12;100054.44;;;10.82;71.00
37298;BME280;30517;51.932;4.278;2022-11-15T14:48:53;100050.81;;;10.89;71.18
37298;BME280;30517;51.932;4.278;2022-11-15T14:51:33;100063.91;;;10.95;70.59
37298;BME280;30517;51.932;4.278;2022-11-15T14:54:14;100050.81;;;10.89;69.92
37298;BME280;30517;51.932;4.278;2022-11-15T14:56:55;100059.00;;;11.26;69.15
37298;BME280;30517;51.932;4.278;2022-11-15T14:59:36;100045.88;;;11.20;69.57
37298;BME280;30517;51.932;4.278;2022-11-15T15:02:19;100053.56;;;11.34;68.90
37298;BME280;30517;51.932;4.278;2022-11-15T15:05:00;100037.75;;;11.33;68.93
37298;BME280;30517;51.932;4.278;2022-11-15T15:07:43;100042.16;;;11.32;68.87
37298;BME280;30517;51.932;4.278;2022-11-15T15:10:25;100052.47;;;11.46;68.50
37298;BME280;30517;51.932;4.278;2022-11-15T15:13:15;100055.13;;;11.46;68.74
37298;BME280;30517;51.932;4.278;2022-11-15T15:15:56;100045.47;;;11.43;68.48
37298;BME280;30517;51.932;4.278;2022-11-15T15:18:37;100033.41;;;11.30;68.65
37298;BME280;30517;51.932;4.278;2022-11-15T15:21:26;100016.63;;;11.31;68.71
37298;BME280;30517;51.932;4.278;2022-11-15T15:24:14;100035.09;;;11.33;69.02
37298;BME280;30517;51.932;4.278;2022-11-15T15:26:55;100042.91;;;11.39;69.05
37298;BME280;30517;51.932;4.278;2022-11-15T15:29:36;100041.91;;;11.46;69.06
37298;BME280;30517;51.932;4.278;2022-11-15T15:32:17;100013.97;;;11.34;68.90
37298;BME280;30517;51.932;4.278;2022-11-15T15:34:57;100021.84;;;11.36;69.37
37298;BME280;30517;51.932;4.278;2022-11-15T15:37:40;100033.34;;;11.33;71.20
37298;BME280;30517;51.932;4.278;2022-11-15T15:40:23;100003.16;;;11.00;71.67
37298;BME280;30517;51.932;4.278;2022-11-15T15:43:05;99987.38;;;10.97;72.05
37298;BME280;30517;51.932;4.278;2022-11-15T15:45:48;100027.50;;;11.16;71.96
37298;BME280;30517;51.932;4.278;2022-11-15T15:48:29;100010.06;;;11.05;72.81
37298;BME280;30517;51.932;4.278;2022-11-15T15:51:10;99969.13;;;10.83;72.28